createdAt,value
2022-09-22T00:01:26.956Z,72.03
2022-09-22T00:04:00.314Z,72.32
2022-09-22T00:06:30.983Z,72.11
2022-09-22T00:09:00.640Z,73.16
2022-09-22T00:11:36.857Z,73.25
2022-09-22T00:14:20.665Z,73.08
2022-09-22T00:16:50.353Z,72.91
2022-09-22T00:19:30.962Z,73.12
2022-09-22T00:21:57.712Z,72.94
2022-09-22T00:24:26.664Z,72.82
2022-09-22T00:26:59.035Z,72.85
2022-09-22T00:29:28.523Z,72.85
2022-09-22T00:31:56.364Z,72.76
2022-09-22T00:34:26.216Z,72.59
2022-09-22T00:36:53.422Z,72.83
2022-09-22T00:39:20.533Z,73.17
2022-09-22T00:41:51.715Z,73.59
2022-09-22T00:44:21.221Z,73.08
2022-09-22T00:46:58.702Z,71.83
2022-09-22T00:50:03.102Z,72.57
2022-09-22T00:52:42.383Z,72.79
2022-09-22T00:55:38.599Z,72.51
2022-09-22T00:58:12.358Z,73.21
2022-09-22T01:00:39.703Z,73.34
2022-09-22T01:03:12.232Z,73.47
2022-09-22T01:05:41.241Z,73.58
2022-09-22T01:08:11.099Z,73.39
2022-09-22T01:10:38.366Z,72.64
2022-09-22T01:13:23.674Z,71.83
2022-09-22T01:16:31.965Z,71.92
2022-09-22T01:19:21.258Z,72.27
2022-09-22T01:21:59.087Z,72.25
2022-09-22T01:24:56.324Z,72.87
2022-09-22T01:27:47.116Z,72.64
2022-09-22T01:30:19.961Z,73.45
2022-09-22T01:33:04.728Z,74.17
2022-09-22T01:36:01.265Z,74.24
2022-09-22T01:39:05.948Z,74.41
2022-09-22T01:42:07.083Z,74.31
2022-09-22T01:45:10.639Z,74.82
2022-09-22T01:48:13.457Z,74.68
2022-09-22T01:50:49.654Z,74.68
2022-09-22T01:53:21.736Z,74.53
2022-09-22T01:55:54.831Z,74.05
2022-09-22T01:58:30.589Z,74.26
2022-09-22T02:01:10.927Z,73.81
2022-09-22T02:03:46.055Z,73.71
2022-09-22T02:06:20.700Z,74.77
2022-09-22T02:09:05.292Z,74.83
2022-09-22T02:11:32.241Z,74.69
2022-09-22T02:13:59.389Z,74.34
2022-09-22T02:16:27.523Z,74.64
2022-09-22T02:19:12.036Z,74.66
2022-09-22T02:21:42.326Z,74.52
2022-09-22T02:24:29.842Z,74.17
2022-09-22T02:26:59.997Z,74.12
2022-09-22T02:29:31.553Z,73.74
2022-09-22T02:32:01.947Z,73.86
2022-09-22T02:34:28.939Z,73.79
2022-09-22T02:37:20.857Z,73.91
2022-09-22T02:40:24.834Z,73.67
2022-09-22T02:43:10.798Z,73.56
2022-09-22T02:46:07.591Z,73.52
2022-09-22T02:48:53.359Z,73.70
2022-09-22T02:51:20.502Z,74.10
2022-09-22T02:53:47.261Z,73.67
2022-09-22T02:56:14.043Z,74.04
2022-09-22T02:58:40.777Z,72.44
2022-09-22T03:01:07.559Z,72.22
2022-09-22T03:03:34.372Z,72.30
2022-09-22T03:06:01.198Z,73.71
2022-09-22T03:08:27.952Z,74.57
2022-09-22T03:10:54.728Z,74.39
2022-09-22T03:13:21.519Z,74.65
2022-09-22T03:15:49.640Z,74.56
2022-09-22T03:18:16.616Z,75.12
2022-09-22T03:20:43.671Z,75.17
2022-09-22T03:23:10.603Z,75.20
2022-09-22T03:25:37.424Z,75.06
2022-09-22T03:28:04.226Z,74.50
2022-09-22T03:30:31.023Z,75.39
2022-09-22T03:32:57.865Z,75.50
2022-09-22T03:35:24.805Z,75.36
2022-09-22T03:37:51.590Z,74.64
2022-09-22T03:40:18.421Z,74.92
2022-09-22T03:42:45.236Z,75.15
2022-09-22T03:45:12.628Z,75.47
2022-09-22T03:47:39.489Z,75.71
2022-09-22T03:50:07.738Z,75.77
2022-09-22T03:52:35.018Z,75.57
2022-09-22T03:55:02.961Z,75.41
2022-09-22T03:57:30.196Z,75.07
2022-09-22T03:59:57.015Z,75.06
2022-09-22T04:02:23.857Z,74.54
2022-09-22T04:04:50.721Z,73.76
2022-09-22T04:07:17.475Z,73.76
2022-09-22T04:09:44.240Z,74.26
2022-09-22T04:12:11.034Z,74.19
2022-09-22T04:14:37.826Z,74.34
2022-09-22T04:17:05.849Z,74.41
2022-09-22T04:19:35.605Z,74.97
2022-09-22T04:22:04.076Z,74.90
2022-09-22T04:24:31.022Z,74.38
2022-09-22T04:27:18.458Z,74.07
2022-09-22T04:29:44.560Z,74.16
2022-09-22T04:32:11.309Z,74.30
2022-09-22T04:34:38.271Z,74.29
2022-09-22T04:37:05.145Z,74.57
2022-09-22T04:39:31.962Z,74.45
2022-09-22T04:41:58.717Z,74.70
2022-09-22T04:44:25.530Z,75.20
2022-09-22T04:46:52.599Z,75.14
2022-09-22T04:49:19.684Z,75.13
2022-09-22T04:51:46.567Z,75.51
2022-09-22T04:54:14.811Z,75.21
2022-09-22T04:56:42.674Z,75.13
2022-09-22T04:59:09.856Z,75.34
2022-09-22T05:01:36.855Z,75.43
2022-09-22T05:04:03.987Z,75.13
2022-09-22T05:06:31.134Z,74.61
2022-09-22T05:08:58.516Z,74.68
2022-09-22T05:11:25.495Z,74.89
2022-09-22T05:13:52.294Z,74.13
2022-09-22T05:16:19.468Z,74.26
2022-09-22T05:18:46.449Z,74.56
2022-09-22T05:21:13.217Z,74.32
2022-09-22T05:23:39.990Z,74.35
2022-09-22T05:26:06.875Z,73.10
2022-09-22T05:28:33.754Z,73.11
2022-09-22T05:31:00.730Z,73.26
2022-09-22T05:33:27.489Z,73.76
2022-09-22T05:35:54.247Z,74.31
2022-09-22T05:38:21.126Z,74.58
2022-09-22T05:40:48.053Z,74.83
2022-09-22T05:43:15.376Z,73.50
2022-09-22T05:45:44.092Z,73.59
2022-09-22T05:48:10.986Z,73.06
2022-09-22T05:50:38.071Z,73.55
2022-09-22T05:53:09.520Z,73.18
2022-09-22T05:55:38.623Z,71.42
2022-09-22T05:58:05.807Z,71.78
2022-09-22T06:00:33.039Z,71.31
2022-09-22T06:02:59.912Z,70.34
2022-09-22T06:05:27.065Z,70.89
2022-09-22T06:08:03.451Z,69.68
2022-09-22T06:10:35.239Z,70.43
2022-09-22T06:13:04.836Z,69.75
2022-09-22T06:15:34.119Z,69.77
2022-09-22T06:18:03.239Z,69.79
2022-09-22T06:20:30.018Z,69.02
2022-09-22T06:22:56.861Z,68.87
2022-09-22T06:25:24.068Z,68.14
2022-09-22T06:28:09.635Z,69.86
2022-09-22T06:30:41.275Z,70.20
2022-09-22T06:33:09.843Z,68.48
2022-09-22T06:35:37.479Z,66.58
2022-09-22T06:38:06.940Z,67.03
2022-09-22T06:40:36.410Z,66.23
2022-09-22T06:43:07.472Z,67.20
2022-09-22T06:45:34.789Z,66.68
2022-09-22T06:48:03.473Z,66.75
2022-09-22T06:50:33.425Z,65.34
2022-09-22T06:53:02.435Z,65.83
2022-09-22T06:55:30.691Z,65.45
2022-09-22T06:57:58.954Z,66.08
2022-09-22T07:00:31.136Z,64.75
2022-09-22T07:03:20.414Z,64.03
2022-09-22T07:06:01.074Z,64.55
2022-09-22T07:08:30.583Z,63.92
2022-09-22T07:11:04.235Z,62.59
2022-09-22T07:13:32.397Z,61.85
2022-09-22T07:16:01.590Z,62.53
2022-09-22T07:18:30.087Z,61.25
2022-09-22T07:21:12.472Z,59.46
2022-09-22T07:23:40.788Z,58.99
2022-09-22T07:26:12.175Z,59.02
2022-09-22T07:28:39.774Z,59.75
2022-09-22T07:31:11.270Z,58.61
2022-09-22T07:33:41.685Z,56.62
2022-09-22T07:36:18.947Z,56.98
2022-09-22T07:38:51.419Z,57.14
2022-09-22T07:41:27.629Z,55.32
2022-09-22T07:43:57.515Z,53.98
2022-09-22T07:46:24.556Z,53.53
2022-09-22T07:48:51.490Z,52.84
2022-09-22T07:51:24.437Z,54.20
2022-09-22T07:54:07.226Z,52.17
2022-09-22T07:56:42.395Z,52.38
2022-09-22T07:59:12.364Z,52.78
2022-09-22T08:01:44.089Z,52.86
2022-09-22T08:04:15.497Z,53.01
2022-09-22T08:06:47.204Z,52.61
2022-09-22T08:09:14.554Z,50.96
2022-09-22T08:11:45.875Z,49.59
2022-09-22T08:14:12.862Z,49.48
2022-09-22T08:16:40.791Z,49.95
2022-09-22T08:19:12.087Z,48.29
2022-09-22T08:21:48.963Z,48.44
2022-09-22T08:24:22.535Z,48.23
2022-09-22T08:26:52.255Z,46.35
2022-09-22T08:29:19.179Z,46.16
2022-09-22T08:31:46.779Z,46.86
2022-09-22T08:34:16.890Z,45.16
2022-09-22T08:36:47.018Z,46.95
2022-09-22T08:39:14.852Z,47.22
2022-09-22T08:42:18.243Z,47.57
2022-09-22T08:45:07.050Z,47.69
2022-09-22T08:48:04.863Z,48.64
2022-09-22T08:51:17.041Z,49.11
2022-09-22T08:53:50.208Z,49.36
2022-09-22T08:56:30.487Z,48.85
2022-09-22T08:59:22.899Z,49.05
2022-09-22T09:02:32.681Z,49.64
2022-09-22T09:05:30.322Z,48.81
2022-09-22T09:08:27.497Z,48.40
2022-09-22T09:11:10.392Z,48.99
2022-09-22T09:13:55.579Z,48.30
2022-09-22T09:17:01.250Z,47.50
2022-09-22T09:19:46.374Z,48.61
2022-09-22T09:22:27.447Z,47.34
2022-09-22T09:28:13.834Z,47.76
2022-09-22T09:30:51.111Z,48.40
2022-09-22T09:33:36.937Z,48.98
2022-09-22T09:36:04.178Z,47.45
2022-09-22T09:38:46.661Z,48.44
2022-09-22T09:41:17.968Z,47.97
2022-09-22T09:43:45.348Z,47.39
2022-09-22T09:46:29.182Z,47.05
2022-09-22T09:49:05.585Z,47.76
2022-09-22T09:51:41.288Z,45.57
2022-09-22T09:54:16.738Z,45.47
2022-09-22T09:57:03.995Z,45.88
2022-09-22T09:59:49.865Z,44.67
2022-09-22T10:02:22.146Z,45.24
2022-09-22T10:04:56.148Z,44.95
2022-09-22T10:07:40.315Z,45.21
2022-09-22T10:10:31.666Z,44.52
2022-09-22T10:13:04.428Z,45.25
2022-09-22T10:15:34.186Z,45.30
2022-09-22T10:18:02.211Z,45.16
2022-09-22T10:20:32.017Z,44.59
2022-09-22T10:23:22.312Z,42.91
2022-09-22T10:25:50.888Z,43.22
2022-09-22T10:28:20.938Z,41.75
2022-09-22T10:31:05.004Z,41.91
2022-09-22T10:33:33.204Z,42.47
2022-09-22T10:36:11.942Z,41.54
2022-09-22T10:38:43.737Z,42.94
2022-09-22T10:41:18.913Z,40.69
2022-09-22T10:43:53.396Z,43.25
2022-09-22T10:46:29.145Z,42.17
2022-09-22T10:49:21.094Z,42.67
2022-09-22T10:52:11.297Z,40.46
2022-09-22T10:55:17.128Z,41.20
2022-09-22T10:58:08.909Z,42.36
2022-09-22T11:00:39.247Z,40.45
2022-09-22T11:03:15.374Z,41.09
2022-09-22T11:06:42.700Z,40.36
2022-09-22T11:09:54.119Z,39.75
2022-09-22T11:12:37.180Z,38.03
2022-09-22T11:15:30.696Z,40.57
2022-09-22T11:18:27.412Z,40.16
2022-09-22T11:21:18.299Z,39.63
2022-09-22T11:24:04.687Z,38.62
2022-09-22T11:26:57.045Z,37.91
2022-09-22T11:29:54.012Z,36.80
2022-09-22T11:32:20.666Z,37.82
2022-09-22T11:35:10.290Z,39.14
2022-09-22T11:38:29.358Z,38.70
2022-09-22T11:41:20.542Z,38.44
2022-09-22T11:43:59.342Z,37.90
2022-09-22T11:47:12.601Z,37.42
2022-09-22T11:50:22.318Z,36.02
2022-09-22T11:53:27.203Z,35.77
2022-09-22T11:56:33.245Z,36.82
2022-09-22T11:59:10.807Z,35.96
2022-09-22T12:01:40.196Z,34.76
2022-09-22T12:04:55.066Z,33.87
2022-09-22T12:07:30.321Z,33.56
2022-09-22T12:10:15.610Z,31.91
2022-09-22T12:12:48.406Z,30.46
2022-09-22T12:15:38.279Z,30.66
2022-09-22T12:18:44.785Z,31.51
2022-09-22T12:22:23.535Z,30.19
2022-09-22T12:24:50.302Z,29.13
2022-09-22T12:27:23.938Z,27.66
2022-09-22T12:30:05.600Z,27.71
2022-09-22T12:32:40.404Z,28.60
2022-09-22T12:35:17.870Z,27.19
2022-09-22T12:37:44.893Z,27.09
2022-09-22T12:40:30.706Z,28.34
2022-09-22T12:42:59.314Z,27.56
2022-09-22T12:45:34.382Z,25.03
2022-09-22T12:48:29.062Z,25.66
2022-09-22T12:51:15.194Z,25.12
2022-09-22T12:53:43.838Z,25.03
2022-09-22T12:56:40.239Z,26.41
2022-09-22T12:59:36.012Z,25.02
2022-09-22T13:02:15.797Z,24.03
2022-09-22T13:05:03.548Z,24.23
2022-09-22T13:07:44.199Z,25.26
2022-09-22T13:10:23.278Z,23.07
2022-09-22T13:13:02.490Z,23.42
2022-09-22T13:15:47.301Z,23.47
2022-09-22T13:18:37.185Z,24.13
2022-09-22T13:21:25.653Z,24.92
2022-09-22T13:23:55.093Z,27.53
2022-09-22T13:26:35.093Z,27.55
2022-09-22T13:29:18.339Z,24.30
2022-09-22T13:31:51.375Z,23.46
2022-09-22T13:34:27.260Z,21.82
2022-09-22T13:37:01.698Z,21.85
2022-09-22T13:39:33.636Z,21.56
2022-09-22T13:42:14.346Z,20.54
2022-09-22T13:44:44.419Z,21.14
2022-09-22T13:47:29.740Z,20.59
2022-09-22T13:50:12.795Z,20.33
2022-09-22T13:52:40.447Z,19.73
2022-09-22T13:55:20.304Z,19.09
2022-09-22T13:57:47.533Z,19.50
2022-09-22T14:00:41.326Z,19.63
2022-09-22T14:03:21.479Z,20.29
2022-09-22T14:05:53.739Z,19.62
2022-09-22T14:08:31.790Z,19.25
2022-09-22T14:10:59.708Z,19.93
2022-09-22T14:13:39.838Z,18.63
2022-09-22T14:16:16.095Z,19.00
2022-09-22T14:18:51.182Z,20.49
2022-09-22T14:21:18.536Z,21.52
2022-09-22T14:23:49.258Z,20.15
2022-09-22T14:26:30.244Z,19.55
2022-09-22T14:28:59.005Z,18.68
2022-09-22T14:31:30.380Z,18.34
2022-09-22T14:33:57.325Z,17.44
2022-09-22T14:36:28.224Z,18.55
2022-09-22T14:39:09.750Z,19.61
2022-09-22T14:41:38.222Z,22.21
2022-09-22T14:44:48.301Z,23.79
2022-09-22T14:47:27.622Z,23.90
2022-09-22T14:50:37.125Z,21.52
2022-09-22T14:53:17.043Z,19.67
2022-09-22T14:55:48.753Z,19.31
2022-09-22T14:58:30.954Z,19.12
2022-09-22T15:01:52.763Z,18.48
2022-09-22T15:04:24.929Z,19.18
2022-09-22T15:06:57.025Z,20.12
2022-09-22T15:09:42.645Z,19.27
2022-09-22T15:12:46.202Z,18.90
2022-09-22T15:15:29.041Z,19.14
2022-09-22T15:18:13.282Z,18.69
2022-09-22T15:20:49.908Z,19.55
2022-09-22T15:23:49.223Z,19.45
2022-09-22T15:26:26.930Z,18.92
2022-09-22T15:28:56.730Z,19.90
2022-09-22T15:31:32.740Z,22.71
2022-09-22T15:34:02.859Z,25.96
2022-09-22T15:36:32.640Z,28.72
2022-09-22T15:39:06.675Z,30.42
2022-09-22T15:41:34.788Z,31.69
2022-09-22T15:44:02.860Z,34.01
2022-09-22T15:46:34.998Z,34.83
2022-09-22T15:49:12.221Z,37.02
2022-09-22T15:51:39.019Z,37.35
2022-09-22T15:54:17.552Z,38.87
2022-09-22T15:56:47.960Z,38.86
2022-09-22T15:59:22.702Z,39.06
2022-09-22T16:01:51.843Z,39.47
2022-09-22T16:04:20.042Z,39.41
2022-09-22T16:06:54.278Z,39.70
2022-09-22T16:09:21.260Z,40.01
2022-09-22T16:11:48.161Z,40.73
2022-09-22T16:14:14.923Z,41.35
2022-09-22T16:16:44.018Z,42.14
2022-09-22T16:19:10.859Z,43.08
2022-09-22T16:21:47.923Z,42.65
2022-09-22T16:24:15.012Z,44.71
2022-09-22T16:26:41.778Z,43.70
2022-09-22T16:29:09.113Z,43.72
2022-09-22T16:31:37.374Z,43.51
2022-09-22T16:34:06.374Z,43.76
2022-09-22T16:36:36.011Z,45.14
2022-09-22T16:39:03.999Z,45.07
2022-09-22T16:41:33.397Z,45.70
2022-09-22T16:44:01.220Z,45.32
2022-09-22T16:46:30.237Z,45.96
2022-09-22T16:49:12.645Z,46.77
2022-09-22T16:51:47.420Z,47.52
2022-09-22T16:54:14.639Z,47.81
2022-09-22T16:56:44.382Z,48.68
2022-09-22T16:59:15.007Z,49.19
2022-09-22T17:01:43.535Z,50.47
2022-09-22T17:04:15.683Z,50.92
2022-09-22T17:06:43.011Z,52.13
2022-09-22T17:09:11.646Z,52.06
2022-09-22T17:11:41.746Z,52.13
2022-09-22T17:14:21.494Z,52.65
2022-09-22T17:16:51.950Z,53.21
2022-09-22T17:19:23.265Z,54.09
2022-09-22T17:21:52.706Z,54.72
2022-09-22T17:24:19.707Z,54.91
2022-09-22T17:26:50.136Z,55.90
2022-09-22T17:29:24.850Z,55.90
2022-09-22T17:31:59.170Z,56.85
2022-09-22T17:34:32.835Z,57.31
2022-09-22T17:37:00.916Z,57.69
2022-09-22T17:39:29.280Z,57.68
2022-09-22T17:41:56.472Z,58.26
2022-09-22T17:44:24.063Z,59.08
2022-09-22T17:47:15.781Z,59.14
2022-09-22T17:50:08.555Z,59.52
2022-09-22T17:52:53.951Z,59.80
2022-09-22T17:55:25.206Z,61.30
2022-09-22T17:57:52.703Z,61.16
2022-09-22T18:00:22.666Z,61.37
2022-09-22T18:02:52.508Z,61.32
2022-09-22T18:05:25.377Z,61.05
2022-09-22T18:07:58.238Z,60.44
2022-09-22T18:10:32.047Z,60.53
2022-09-22T18:12:59.897Z,60.01
2022-09-22T18:15:27.970Z,59.81
2022-09-22T18:17:57.605Z,59.70
2022-09-22T18:20:25.670Z,59.92
2022-09-22T18:22:52.570Z,59.88
2022-09-22T18:25:22.952Z,60.21
2022-09-22T18:27:49.843Z,60.06
2022-09-22T18:30:19.090Z,59.80
2022-09-22T18:32:47.514Z,60.13
2022-09-22T18:35:14.595Z,60.58
2022-09-22T18:37:41.887Z,60.68
2022-09-22T18:40:10.249Z,60.52
2022-09-22T18:42:37.029Z,60.46
2022-09-22T18:45:04.536Z,60.40
2022-09-22T18:47:31.307Z,60.33
2022-09-22T18:49:59.144Z,60.47
2022-09-22T18:52:26.000Z,60.64
2022-09-22T18:54:54.111Z,60.66
2022-09-22T18:57:24.339Z,60.42
2022-09-22T18:59:51.403Z,60.79
2022-09-22T19:02:22.359Z,61.04
2022-09-22T19:04:51.476Z,60.66
2022-09-22T19:07:41.551Z,60.90
2022-09-22T19:10:13.842Z,60.75
2022-09-22T19:12:40.830Z,60.66
2022-09-22T19:15:13.461Z,60.87
2022-09-22T19:17:43.891Z,60.74
2022-09-22T19:20:13.471Z,60.64
2022-09-22T19:22:40.822Z,60.69
2022-09-22T19:25:08.219Z,60.96
2022-09-22T19:27:35.450Z,60.95
2022-09-22T19:30:02.715Z,61.16
2022-09-22T19:32:29.527Z,61.41
2022-09-22T19:34:56.922Z,61.36
2022-09-22T19:37:24.810Z,61.54
2022-09-22T19:39:51.626Z,61.93
2022-09-22T19:42:18.883Z,62.14
2022-09-22T19:44:45.629Z,62.53
2022-09-22T19:47:12.431Z,62.68
2022-09-22T19:49:42.225Z,62.53
2022-09-22T19:52:09.273Z,63.79
2022-09-22T19:54:36.025Z,63.59
2022-09-22T19:57:02.996Z,64.14
2022-09-22T19:59:29.830Z,64.53
2022-09-22T20:01:56.704Z,64.50
2022-09-22T20:04:23.502Z,64.45
2022-09-22T20:06:50.294Z,64.06
2022-09-22T20:09:17.239Z,63.79
2022-09-22T20:11:49.551Z,63.67
2022-09-22T20:14:25.188Z,63.37
2022-09-22T20:17:01.820Z,63.49
2022-09-22T20:19:31.659Z,63.10
2022-09-22T20:22:25.608Z,63.45
2022-09-22T20:24:57.249Z,63.61
2022-09-22T20:27:32.589Z,63.90
2022-09-22T20:30:00.715Z,63.95
2022-09-22T20:32:34.514Z,64.33
2022-09-22T20:35:01.651Z,64.42
2022-09-22T20:37:29.876Z,64.85
2022-09-22T20:39:57.388Z,64.84
2022-09-22T20:42:24.293Z,64.86
2022-09-22T20:44:51.103Z,65.24
2022-09-22T20:47:21.839Z,64.84
2022-09-22T20:49:51.744Z,65.34
2022-09-22T20:52:20.842Z,65.11
2022-09-22T20:54:48.249Z,65.25
2022-09-22T20:57:15.518Z,65.49
2022-09-22T20:59:45.018Z,65.83
2022-09-22T21:02:13.913Z,65.36
2022-09-22T21:04:41.061Z,65.33
2022-09-22T21:07:08.306Z,65.28
2022-09-22T21:09:53.739Z,65.48
2022-09-22T21:12:20.492Z,65.29
2022-09-22T21:14:47.261Z,65.67
2022-09-22T21:17:15.494Z,66.13
2022-09-22T21:19:43.155Z,66.15
2022-09-22T21:22:10.259Z,65.87
2022-09-22T21:24:37.068Z,66.05
2022-09-22T21:27:04.914Z,65.71
2022-09-22T21:29:31.894Z,65.63
2022-09-22T21:31:59.636Z,65.75
2022-09-22T21:34:27.200Z,65.69
2022-09-22T21:36:53.938Z,65.92
2022-09-22T21:39:21.371Z,66.16
2022-09-22T21:41:48.298Z,66.13
2022-09-22T21:44:15.188Z,65.96
2022-09-22T21:46:42.437Z,66.64
2022-09-22T21:49:10.182Z,66.93
2022-09-22T21:51:44.128Z,67.07
2022-09-22T21:54:18.104Z,67.16
2022-09-22T21:56:46.102Z,67.12
2022-09-22T21:59:13.364Z,67.40
2022-09-22T22:01:42.055Z,67.12
2022-09-22T22:04:10.105Z,67.15
2022-09-22T22:06:42.979Z,67.51
2022-09-22T22:09:22.343Z,67.43
2022-09-22T22:11:56.763Z,67.12
2022-09-22T22:14:29.359Z,66.98
2022-09-22T22:16:56.157Z,66.87
2022-09-22T22:19:26.604Z,67.24
2022-09-22T22:21:54.665Z,67.29
2022-09-22T22:24:28.563Z,67.17
2022-09-22T22:26:57.172Z,67.38
2022-09-22T22:29:27.009Z,67.44
2022-09-22T22:31:54.303Z,67.52
2022-09-22T22:34:27.055Z,67.36
2022-09-22T22:36:55.384Z,67.30
2022-09-22T22:39:22.128Z,67.68
2022-09-22T22:41:48.883Z,68.39
2022-09-22T22:44:19.030Z,67.95
2022-09-22T22:46:46.779Z,68.15
2022-09-22T22:49:14.124Z,67.89
2022-09-22T22:51:45.584Z,67.97
2022-09-22T22:54:13.253Z,67.60
2022-09-22T22:56:42.444Z,67.69
2022-09-22T22:59:10.538Z,67.49
2022-09-22T23:01:37.648Z,67.55
2022-09-22T23:04:07.452Z,67.53
2022-09-22T23:06:43.921Z,67.52
2022-09-22T23:09:15.304Z,67.44
2022-09-22T23:11:43.422Z,67.82
2022-09-22T23:14:12.241Z,67.81
2022-09-22T23:16:45.490Z,67.49
2022-09-22T23:19:16.023Z,67.35
2022-09-22T23:21:42.841Z,67.35
2022-09-22T23:24:12.379Z,67.77
2022-09-22T23:26:40.406Z,67.81
2022-09-22T23:29:07.242Z,68.22
2022-09-22T23:31:34.139Z,68.21
2022-09-22T23:34:01.181Z,67.82
2022-09-22T23:36:29.767Z,68.08
2022-09-22T23:39:05.828Z,67.30
2022-09-22T23:41:35.399Z,67.74
2022-09-22T23:44:03.150Z,67.98
2022-09-22T23:46:30.636Z,69.00
2022-09-22T23:48:59.944Z,69.12
2022-09-22T23:51:27.310Z,69.21
2022-09-22T23:53:54.115Z,69.18
2022-09-22T23:56:20.877Z,69.31
2022-09-22T23:58:47.918Z,69.39
